sensor_id;sensor_type;location;lat;lon;timestamp;noise_LAeq;noise_LA_min;noise_LA_max;noise_LA01;noise_LA95
74496;Laerm;62979;55.720;37.606;2023-11-21T00:00:14;41.91;37.62;50.36;;
74496;Laerm;62979;55.720;37.606;2023-11-21T00:02:42;41.80;37.36;45.74;;
74496;Laerm;62979;55.720;37.606;2023-11-21T00:05:12;43.14;38.25;51.71;;
74496;Laerm;62979;55.720;37.606;2023-11-21T00:07:40;42.22;38.28;47.10;;
74496;Laerm;62979;55.720;37.606;2023-11-21T00:10:09;43.38;37.81;55.23;;
74496;Laerm;62979;55.720;37.606;2023-11-21T00:12:37;47.84;38.03;63.17;;
74496;Laerm;62979;55.720;37.606;2023-11-21T00:15:07;42.32;38.27;46.24;;
74496;Laerm;62979;55.720;37.606;2023-11-21T00:17:36;42.31;38.27;49.68;;
74496;Laerm;62979;55.720;37.606;2023-11-21T00:20:05;41.64;36.84;57.72;;
74496;Laerm;62979;55.720;37.606;2023-11-21T00:22:34;41.59;37.65;45.52;;
74496;Laerm;62979;55.720;37.606;2023-11-21T00:25:02;42.19;38.27;46.82;;
74496;Laerm;62979;55.720;37.606;2023-11-21T00:27:30;41.72;37.02;45.98;;
74496;Laerm;62979;55.720;37.606;2023-11-21T00:29:57;41.65;37.83;45.69;;
74496;Laerm;62979;55.720;37.606;2023-11-21T00:32:24;41.39;37.41;45.44;;
74496;Laerm;62979;55.720;37.606;2023-11-21T00:34:51;41.61;37.62;45.35;;
74496;Laerm;62979;55.720;37.606;2023-11-21T00:37:20;41.19;37.41;48.54;;
74496;Laerm;62979;55.720;37.606;2023-11-21T00:39:48;44.24;36.97;57.85;;
74496;Laerm;62979;55.720;37.606;2023-11-21T00:42:16;46.99;37.06;69.80;;
74496;Laerm;62979;55.720;37.606;2023-11-21T00:44:43;41.63;37.59;45.86;;
74496;Laerm;62979;55.720;37.606;2023-11-21T00:47:10;41.40;37.48;47.91;;
74496;Laerm;62979;55.720;37.606;2023-11-21T00:49:37;42.30;38.29;50.55;;
74496;Laerm;62979;55.720;37.606;2023-11-21T00:52:06;41.76;37.12;45.81;;
74496;Laerm;62979;55.720;37.606;2023-11-21T00:54:33;42.58;37.91;50.68;;
74496;Laerm;62979;55.720;37.606;2023-11-21T00:57:02;42.10;37.74;49.31;;
74496;Laerm;62979;55.720;37.606;2023-11-21T00:59:29;42.05;37.85;46.80;;
74496;Laerm;62979;55.720;37.606;2023-11-21T01:01:57;42.69;37.51;51.36;;
74496;Laerm;62979;55.720;37.606;2023-11-21T01:04:26;51.21;38.67;64.68;;
74496;Laerm;62979;55.720;37.606;2023-11-21T01:06:53;47.06;38.21;61.03;;
74496;Laerm;62979;55.720;37.606;2023-11-21T01:09:20;42.23;36.92;48.72;;
74496;Laerm;62979;55.720;37.606;2023-11-21T01:11:47;41.89;37.79;46.71;;
74496;Laerm;62979;55.720;37.606;2023-11-21T01:14:16;41.58;36.73;47.59;;
74496;Laerm;62979;55.720;37.606;2023-11-21T01:16:43;42.11;37.73;46.38;;
74496;Laerm;62979;55.720;37.606;2023-11-21T01:19:10;41.94;37.66;45.52;;
74496;Laerm;62979;55.720;37.606;2023-11-21T01:21:37;41.96;38.14;47.07;;
74496;Laerm;62979;55.720;37.606;2023-11-21T01:24:05;46.45;37.66;64.24;;
74496;Laerm;62979;55.720;37.606;2023-11-21T01:26:33;45.73;37.64;61.00;;
74496;Laerm;62979;55.720;37.606;2023-11-21T01:29:00;44.51;38.19;55.94;;
74496;Laerm;62979;55.720;37.606;2023-11-21T01:31:29;43.29;37.95;54.90;;
74496;Laerm;62979;55.720;37.606;2023-11-21T01:33:56;42.18;38.34;52.00;;
74496;Laerm;62979;55.720;37.606;2023-11-21T01:36:30;45.65;38.11;56.67;;
74496;Laerm;62979;55.720;37.606;2023-11-21T01:38:59;42.05;37.57;50.21;;
74496;Laerm;62979;55.720;37.606;2023-11-21T01:41:26;42.38;37.54;46.81;;
74496;Laerm;62979;55.720;37.606;2023-11-21T01:43:54;42.77;36.33;52.21;;
74496;Laerm;62979;55.720;37.606;2023-11-21T01:46:22;42.17;37.77;49.70;;
74496;Laerm;62979;55.720;37.606;2023-11-21T01:48:52;42.85;38.37;54.56;;
74496;Laerm;62979;55.720;37.606;2023-11-21T01:51:20;43.24;38.29;51.65;;
74496;Laerm;62979;55.720;37.606;2023-11-21T01:53:48;42.43;38.21;46.34;;
74496;Laerm;62979;55.720;37.606;2023-11-21T01:56:15;42.23;37.79;46.65;;
74496;Laerm;62979;55.720;37.606;2023-11-21T01:58:43;42.51;38.54;48.21;;
74496;Laerm;62979;55.720;37.606;2023-11-21T02:01:12;42.93;38.45;48.67;;
74496;Laerm;62979;55.720;37.606;2023-11-21T02:03:40;43.93;39.00;50.79;;
74496;Laerm;62979;55.720;37.606;2023-11-21T02:06:08;43.18;36.78;53.26;;
74496;Laerm;62979;55.720;37.606;2023-11-21T02:08:35;52.05;38.88;69.17;;
74496;Laerm;62979;55.720;37.606;2023-11-21T02:11:03;43.26;38.67;50.68;;
74496;Laerm;62979;55.720;37.606;2023-11-21T02:13:31;43.14;37.98;51.20;;
74496;Laerm;62979;55.720;37.606;2023-11-21T02:15:58;48.63;38.46;63.10;;
74496;Laerm;62979;55.720;37.606;2023-11-21T02:18:25;43.79;39.58;51.52;;
74496;Laerm;62979;55.720;37.606;2023-11-21T02:20:55;48.60;38.41;63.64;;
74496;Laerm;62979;55.720;37.606;2023-11-21T02:23:24;43.80;38.00;55.68;;
74496;Laerm;62979;55.720;37.606;2023-11-21T02:25:54;44.64;39.32;55.05;;
74496;Laerm;62979;55.720;37.606;2023-11-21T02:28:21;42.45;38.29;49.34;;
74496;Laerm;62979;55.720;37.606;2023-11-21T02:30:51;42.97;38.07;50.73;;
74496;Laerm;62979;55.720;37.606;2023-11-21T02:33:21;43.40;38.64;48.91;;
74496;Laerm;62979;55.720;37.606;2023-11-21T02:35:49;43.67;39.29;50.15;;
74496;Laerm;62979;55.720;37.606;2023-11-21T02:38:19;43.41;39.36;48.67;;
74496;Laerm;62979;55.720;37.606;2023-11-21T02:40:48;44.82;39.60;58.94;;
74496;Laerm;62979;55.720;37.606;2023-11-21T02:43:15;45.59;40.09;59.48;;
74496;Laerm;62979;55.720;37.606;2023-11-21T02:45:43;51.15;39.08;63.12;;
74496;Laerm;62979;55.720;37.606;2023-11-21T02:48:10;43.43;38.84;51.96;;
74496;Laerm;62979;55.720;37.606;2023-11-21T02:50:37;46.54;39.46;58.38;;
74496;Laerm;62979;55.720;37.606;2023-11-21T02:53:04;44.14;38.80;53.04;;
74496;Laerm;62979;55.720;37.606;2023-11-21T02:55:32;43.95;38.86;55.22;;
74496;Laerm;62979;55.720;37.606;2023-11-21T02:58:03;47.08;40.74;59.87;;
74496;Laerm;62979;55.720;37.606;2023-11-21T03:00:31;50.22;40.90;61.60;;
74496;Laerm;62979;55.720;37.606;2023-11-21T03:02:59;51.49;40.42;68.42;;
74496;Laerm;62979;55.720;37.606;2023-11-21T03:05:26;47.11;40.02;58.48;;
74496;Laerm;62979;55.720;37.606;2023-11-21T03:07:54;51.03;39.19;66.00;;
74496;Laerm;62979;55.720;37.606;2023-11-21T03:10:22;48.58;39.49;62.62;;
74496;Laerm;62979;55.720;37.606;2023-11-21T03:12:49;49.05;39.86;60.59;;
74496;Laerm;62979;55.720;37.606;2023-11-21T03:15:17;45.13;40.02;55.29;;
74496;Laerm;62979;55.720;37.606;2023-11-21T03:17:44;49.49;39.54;61.27;;
74496;Laerm;62979;55.720;37.606;2023-11-21T03:20:14;46.56;41.35;58.87;;
74496;Laerm;62979;55.720;37.606;2023-11-21T03:22:42;57.20;42.38;67.93;;
74496;Laerm;62979;55.720;37.606;2023-11-21T03:25:09;52.68;41.10;63.20;;
74496;Laerm;62979;55.720;37.606;2023-11-21T03:27:37;48.14;41.48;59.38;;
74496;Laerm;62979;55.720;37.606;2023-11-21T03:30:08;45.43;40.86;50.64;;
74496;Laerm;62979;55.720;37.606;2023-11-21T03:32:38;47.95;40.99;61.78;;
74496;Laerm;62979;55.720;37.606;2023-11-21T03:35:06;49.58;42.22;59.02;;
74496;Laerm;62979;55.720;37.606;2023-11-21T03:37:33;49.95;41.02;65.26;;
74496;Laerm;62979;55.720;37.606;2023-11-21T03:40:01;48.15;40.74;56.77;;
74496;Laerm;62979;55.720;37.606;2023-11-21T03:42:29;52.25;42.01;62.17;;
74496;Laerm;62979;55.720;37.606;2023-11-21T03:44:56;52.41;41.93;63.22;;
74496;Laerm;62979;55.720;37.606;2023-11-21T03:47:23;53.41;42.23;65.86;;
74496;Laerm;62979;55.720;37.606;2023-11-21T03:49:52;48.53;40.91;59.94;;
74496;Laerm;62979;55.720;37.606;2023-11-21T03:52:19;47.61;42.65;61.30;;
74496;Laerm;62979;55.720;37.606;2023-11-21T03:54:46;53.90;44.71;64.95;;
74496;Laerm;62979;55.720;37.606;2023-11-21T03:57:13;52.24;42.89;74.54;;
74496;Laerm;62979;55.720;37.606;2023-11-21T03:59:41;52.32;41.21;63.75;;
74496;Laerm;62979;55.720;37.606;2023-11-21T04:02:09;52.68;42.26;65.46;;
74496;Laerm;62979;55.720;37.606;2023-11-21T04:04:36;49.04;41.17;59.36;;
74496;Laerm;62979;55.720;37.606;2023-11-21T04:07:05;52.56;42.74;63.28;;
74496;Laerm;62979;55.720;37.606;2023-11-21T04:09:32;53.20;42.78;65.75;;
74496;Laerm;62979;55.720;37.606;2023-11-21T04:11:59;52.82;43.85;67.11;;
74496;Laerm;62979;55.720;37.606;2023-11-21T04:14:27;52.31;43.04;63.16;;
74496;Laerm;62979;55.720;37.606;2023-11-21T04:16:54;50.64;43.48;61.48;;
74496;Laerm;62979;55.720;37.606;2023-11-21T04:19:21;53.94;42.99;63.25;;
74496;Laerm;62979;55.720;37.606;2023-11-21T04:21:48;55.44;47.12;66.85;;
74496;Laerm;62979;55.720;37.606;2023-11-21T04:24:17;54.94;46.70;67.41;;
74496;Laerm;62979;55.720;37.606;2023-11-21T04:26:44;54.28;43.84;66.16;;
74496;Laerm;62979;55.720;37.606;2023-11-21T04:29:11;49.75;43.65;61.18;;
74496;Laerm;62979;55.720;37.606;2023-11-21T04:31:38;51.77;42.92;65.35;;
74496;Laerm;62979;55.720;37.606;2023-11-21T04:34:05;54.17;45.20;63.15;;
74496;Laerm;62979;55.720;37.606;2023-11-21T04:36:34;53.40;46.35;65.14;;
74496;Laerm;62979;55.720;37.606;2023-11-21T04:39:01;55.39;45.51;65.55;;
74496;Laerm;62979;55.720;37.606;2023-11-21T04:41:30;55.09;47.16;63.11;;
74496;Laerm;62979;55.720;37.606;2023-11-21T04:43:58;55.11;45.66;65.76;;
74496;Laerm;62979;55.720;37.606;2023-11-21T04:46:26;54.11;46.74;70.99;;
74496;Laerm;62979;55.720;37.606;2023-11-21T04:48:53;54.89;47.84;64.08;;
74496;Laerm;62979;55.720;37.606;2023-11-21T04:51:20;56.72;48.78;63.83;;
74496;Laerm;62979;55.720;37.606;2023-11-21T04:53:47;56.19;48.35;73.00;;
74496;Laerm;62979;55.720;37.606;2023-11-21T04:56:14;56.61;48.05;72.58;;
74496;Laerm;62979;55.720;37.606;2023-11-21T04:58:44;57.28;49.70;65.57;;
74496;Laerm;62979;55.720;37.606;2023-11-21T05:01:11;54.82;48.14;65.67;;
74496;Laerm;62979;55.720;37.606;2023-11-21T05:03:38;57.54;49.54;70.56;;
74496;Laerm;62979;55.720;37.606;2023-11-21T05:06:09;59.77;52.43;67.13;;
74496;Laerm;62979;55.720;37.606;2023-11-21T05:08:36;58.93;48.62;71.99;;
74496;Laerm;62979;55.720;37.606;2023-11-21T05:11:04;58.24;49.55;65.70;;
74496;Laerm;62979;55.720;37.606;2023-11-21T05:13:34;60.01;51.21;67.52;;
74496;Laerm;62979;55.720;37.606;2023-11-21T05:16:03;60.17;53.68;76.28;;
74496;Laerm;62979;55.720;37.606;2023-11-21T05:18:32;63.32;54.40;79.18;;
74496;Laerm;62979;55.720;37.606;2023-11-21T05:21:00;58.71;49.36;69.03;;
74496;Laerm;62979;55.720;37.606;2023-11-21T05:23:28;58.46;50.53;70.74;;
74496;Laerm;62979;55.720;37.606;2023-11-21T05:25:55;59.19;50.34;69.74;;
74496;Laerm;62979;55.720;37.606;2023-11-21T05:28:22;57.91;48.61;63.88;;
74496;Laerm;62979;55.720;37.606;2023-11-21T05:30:49;57.01;47.44;69.33;;
74496;Laerm;62979;55.720;37.606;2023-11-21T05:33:18;59.42;47.76;71.23;;
74496;Laerm;62979;55.720;37.606;2023-11-21T05:35:45;59.69;52.83;69.22;;
74496;Laerm;62979;55.720;37.606;2023-11-21T05:38:14;58.23;48.44;67.70;;
74496;Laerm;62979;55.720;37.606;2023-11-21T05:40:41;59.21;50.39;68.47;;
74496;Laerm;62979;55.720;37.606;2023-11-21T05:43:09;61.72;53.78;71.39;;
74496;Laerm;62979;55.720;37.606;2023-11-21T05:45:37;56.95;48.30;63.82;;
74496;Laerm;62979;55.720;37.606;2023-11-21T05:48:05;57.05;49.95;65.36;;
74496;Laerm;62979;55.720;37.606;2023-11-21T05:50:33;58.14;52.00;75.59;;
74496;Laerm;62979;55.720;37.606;2023-11-21T05:53:00;57.16;50.26;66.16;;
74496;Laerm;62979;55.720;37.606;2023-11-21T05:55:28;59.13;51.56;66.56;;
74496;Laerm;62979;55.720;37.606;2023-11-21T05:57:55;58.99;52.36;66.75;;
74496;Laerm;62979;55.720;37.606;2023-11-21T06:00:21;58.97;51.17;66.08;;
74496;Laerm;62979;55.720;37.606;2023-11-21T06:02:52;58.18;51.05;71.69;;
74496;Laerm;62979;55.720;37.606;2023-11-21T06:05:21;57.55;50.30;67.09;;
74496;Laerm;62979;55.720;37.606;2023-11-21T06:07:51;57.62;50.97;67.47;;
74496;Laerm;62979;55.720;37.606;2023-11-21T06:10:21;57.13;49.23;65.34;;
74496;Laerm;62979;55.720;37.606;2023-11-21T06:12:49;54.28;47.45;61.30;;
74496;Laerm;62979;55.720;37.606;2023-11-21T06:15:16;55.89;47.55;63.64;;
74496;Laerm;62979;55.720;37.606;2023-11-21T06:17:45;56.01;48.05;64.64;;
74496;Laerm;62979;55.720;37.606;2023-11-21T06:20:15;57.68;48.12;65.89;;
74496;Laerm;62979;55.720;37.606;2023-11-21T06:22:45;57.26;47.34;66.55;;
74496;Laerm;62979;55.720;37.606;2023-11-21T06:25:14;60.41;51.73;71.27;;
74496;Laerm;62979;55.720;37.606;2023-11-21T06:27:43;57.21;48.45;68.58;;
74496;Laerm;62979;55.720;37.606;2023-11-21T06:30:12;54.12;47.93;63.55;;
74496;Laerm;62979;55.720;37.606;2023-11-21T06:32:42;54.79;45.73;62.55;;
74496;Laerm;62979;55.720;37.606;2023-11-21T06:35:11;58.84;49.35;71.40;;
74496;Laerm;62979;55.720;37.606;2023-11-21T06:37:39;59.97;45.86;74.66;;
74496;Laerm;62979;55.720;37.606;2023-11-21T06:40:07;55.91;46.59;72.80;;
74496;Laerm;62979;55.720;37.606;2023-11-21T06:42:37;56.20;46.99;64.58;;
74496;Laerm;62979;55.720;37.606;2023-11-21T06:45:06;60.85;50.33;70.36;;
74496;Laerm;62979;55.720;37.606;2023-11-21T06:47:37;58.04;51.73;66.19;;
74496;Laerm;62979;55.720;37.606;2023-11-21T06:50:06;56.82;47.50;66.58;;
74496;Laerm;62979;55.720;37.606;2023-11-21T06:52:33;57.21;48.58;69.54;;
74496;Laerm;62979;55.720;37.606;2023-11-21T06:55:01;57.77;49.90;66.43;;
74496;Laerm;62979;55.720;37.606;2023-11-21T06:57:28;57.87;49.85;67.84;;
74496;Laerm;62979;55.720;37.606;2023-11-21T06:59:57;63.31;49.21;78.06;;
74496;Laerm;62979;55.720;37.606;2023-11-21T07:02:24;61.68;56.85;69.37;;
74496;Laerm;62979;55.720;37.606;2023-11-21T07:04:51;55.77;47.35;62.21;;
74496;Laerm;62979;55.720;37.606;2023-11-21T07:07:19;56.48;47.10;63.28;;
74496;Laerm;62979;55.720;37.606;2023-11-21T07:09:46;57.06;44.89;70.87;;
74496;Laerm;62979;55.720;37.606;2023-11-21T07:12:14;57.31;50.06;66.36;;
74496;Laerm;62979;55.720;37.606;2023-11-21T07:14:41;58.00;49.99;65.85;;
74496;Laerm;62979;55.720;37.606;2023-11-21T07:17:12;58.41;50.60;72.39;;
74496;Laerm;62979;55.720;37.606;2023-11-21T07:19:39;59.82;51.93;73.71;;
74496;Laerm;62979;55.720;37.606;2023-11-21T07:22:07;57.97;51.67;68.08;;
74496;Laerm;62979;55.720;37.606;2023-11-21T07:24:35;59.75;52.59;69.04;;
74496;Laerm;62979;55.720;37.606;2023-11-21T07:27:03;58.89;51.76;63.89;;
74496;Laerm;62979;55.720;37.606;2023-11-21T07:29:30;63.41;56.07;70.65;;
74496;Laerm;62979;55.720;37.606;2023-11-21T07:31:58;58.04;52.15;65.07;;
74496;Laerm;62979;55.720;37.606;2023-11-21T07:34:27;57.43;50.76;66.27;;
74496;Laerm;62979;55.720;37.606;2023-11-21T07:36:54;58.24;52.90;65.34;;
74496;Laerm;62979;55.720;37.606;2023-11-21T07:39:22;58.50;49.51;74.69;;
74496;Laerm;62979;55.720;37.606;2023-11-21T07:41:49;59.92;50.63;73.60;;
74496;Laerm;62979;55.720;37.606;2023-11-21T07:44:16;57.67;49.24;65.64;;
74496;Laerm;62979;55.720;37.606;2023-11-21T07:46:45;56.91;49.66;72.73;;
74496;Laerm;62979;55.720;37.606;2023-11-21T07:49:12;57.95;48.62;69.49;;
74496;Laerm;62979;55.720;37.606;2023-11-21T07:51:43;55.98;45.47;69.58;;
74496;Laerm;62979;55.720;37.606;2023-11-21T07:54:11;55.37;48.51;61.91;;
74496;Laerm;62979;55.720;37.606;2023-11-21T07:56:38;59.92;51.83;73.31;;
74496;Laerm;62979;55.720;37.606;2023-11-21T07:59:05;57.86;50.38;66.26;;
74496;Laerm;62979;55.720;37.606;2023-11-21T08:01:32;56.13;49.47;62.76;;
74496;Laerm;62979;55.720;37.606;2023-11-21T08:03:59;57.30;48.76;64.16;;
74496;Laerm;62979;55.720;37.606;2023-11-21T08:06:29;57.87;48.00;74.41;;
74496;Laerm;62979;55.720;37.606;2023-11-21T08:08:58;57.49;49.34;65.45;;
74496;Laerm;62979;55.720;37.606;2023-11-21T08:11:25;54.57;44.44;63.37;;
74496;Laerm;62979;55.720;37.606;2023-11-21T08:13:55;57.81;49.84;71.46;;
74496;Laerm;62979;55.720;37.606;2023-11-21T08:16:22;56.34;47.66;64.51;;
74496;Laerm;62979;55.720;37.606;2023-11-21T08:18:49;56.43;49.44;64.21;;
74496;Laerm;62979;55.720;37.606;2023-11-21T08:21:17;59.52;50.09;68.86;;
74496;Laerm;62979;55.720;37.606;2023-11-21T08:23:44;57.79;47.91;66.55;;
74496;Laerm;62979;55.720;37.606;2023-11-21T08:26:16;56.91;45.94;72.17;;
74496;Laerm;62979;55.720;37.606;2023-11-21T08:28:44;60.59;51.40;73.05;;
74496;Laerm;62979;55.720;37.606;2023-11-21T08:31:11;58.25;49.25;68.18;;
74496;Laerm;62979;55.720;37.606;2023-11-21T08:33:38;58.49;50.60;72.94;;
74496;Laerm;62979;55.720;37.606;2023-11-21T08:36:07;57.85;49.84;65.28;;
74496;Laerm;62979;55.720;37.606;2023-11-21T08:38:35;56.76;49.77;67.60;;
74496;Laerm;62979;55.720;37.606;2023-11-21T08:41:05;57.44;50.34;66.88;;
74496;Laerm;62979;55.720;37.606;2023-11-21T08:43:36;60.81;53.11;79.76;;
74496;Laerm;62979;55.720;37.606;2023-11-21T08:46:05;57.15;50.62;72.47;;
74496;Laerm;62979;55.720;37.606;2023-11-21T08:48:35;57.31;48.53;64.51;;
74496;Laerm;62979;55.720;37.606;2023-11-21T08:51:03;59.20;50.37;80.42;;
74496;Laerm;62979;55.720;37.606;2023-11-21T08:53:30;63.69;49.09;78.79;;
74496;Laerm;62979;55.720;37.606;2023-11-21T08:55:58;57.84;50.92;65.90;;
74496;Laerm;62979;55.720;37.606;2023-11-21T08:58:25;57.87;50.22;67.82;;
74496;Laerm;62979;55.720;37.606;2023-11-21T09:00:54;57.58;48.82;65.26;;
74496;Laerm;62979;55.720;37.606;2023-11-21T09:03:21;56.47;48.73;65.57;;
74496;Laerm;62979;55.720;37.606;2023-11-21T09:05:48;58.55;49.43;66.27;;
74496;Laerm;62979;55.720;37.606;2023-11-21T09:08:15;57.40;49.89;76.77;;
74496;Laerm;62979;55.720;37.606;2023-11-21T09:10:43;57.05;47.57;65.55;;
74496;Laerm;62979;55.720;37.606;2023-11-21T09:13:13;56.68;48.82;72.20;;
74496;Laerm;62979;55.720;37.606;2023-11-21T09:15:43;55.32;47.28;64.07;;
74496;Laerm;62979;55.720;37.606;2023-11-21T09:18:13;56.95;46.55;66.14;;
74496;Laerm;62979;55.720;37.606;2023-11-21T09:20:41;57.43;46.89;65.39;;
74496;Laerm;62979;55.720;37.606;2023-11-21T09:23:08;56.68;46.31;67.09;;
74496;Laerm;62979;55.720;37.606;2023-11-21T09:25:36;57.19;50.73;64.38;;
74496;Laerm;62979;55.720;37.606;2023-11-21T09:28:04;55.93;47.23;64.87;;
74496;Laerm;62979;55.720;37.606;2023-11-21T09:30:33;55.18;45.68;70.32;;
74496;Laerm;62979;55.720;37.606;2023-11-21T09:33:01;54.76;46.81;63.22;;
74496;Laerm;62979;55.720;37.606;2023-11-21T09:35:29;57.45;49.53;73.25;;
74496;Laerm;62979;55.720;37.606;2023-11-21T09:37:57;56.16;48.44;67.16;;
74496;Laerm;62979;55.720;37.606;2023-11-21T09:40:24;55.23;48.76;63.33;;
74496;Laerm;62979;55.720;37.606;2023-11-21T09:42:56;56.57;48.23;63.83;;
74496;Laerm;62979;55.720;37.606;2023-11-21T09:45:26;60.58;49.12;82.06;;
74496;Laerm;62979;55.720;37.606;2023-11-21T09:47:55;57.99;49.90;69.41;;
74496;Laerm;62979;55.720;37.606;2023-11-21T09:50:23;57.50;49.13;64.03;;
74496;Laerm;62979;55.720;37.606;2023-11-21T09:53:12;57.78;49.53;65.45;;
74496;Laerm;62979;55.720;37.606;2023-11-21T09:55:44;54.48;44.57;64.94;;
74496;Laerm;62979;55.720;37.606;2023-11-21T09:58:13;60.47;48.95;77.30;;
74496;Laerm;62979;55.720;37.606;2023-11-21T10:00:42;61.47;49.77;73.22;;
74496;Laerm;62979;55.720;37.606;2023-11-21T10:03:09;62.77;53.95;81.28;;
74496;Laerm;62979;55.720;37.606;2023-11-21T10:05:37;60.16;51.28;68.03;;
74496;Laerm;62979;55.720;37.606;2023-11-21T10:08:09;61.24;51.90;81.44;;
74496;Laerm;62979;55.720;37.606;2023-11-21T10:10:38;58.06;48.59;66.07;;
74496;Laerm;62979;55.720;37.606;2023-11-21T10:13:12;53.69;47.29;62.94;;
74496;Laerm;62979;55.720;37.606;2023-11-21T10:15:43;58.89;49.13;75.56;;
74496;Laerm;62979;55.720;37.606;2023-11-21T10:18:15;56.78;48.13;69.12;;
74496;Laerm;62979;55.720;37.606;2023-11-21T10:20:42;57.48;48.32;68.20;;
74496;Laerm;62979;55.720;37.606;2023-11-21T10:23:14;59.33;48.86;85.99;;
74496;Laerm;62979;55.720;37.606;2023-11-21T10:25:41;56.00;46.50;67.36;;
74496;Laerm;62979;55.720;37.606;2023-11-21T10:28:10;58.56;48.62;67.63;;
74496;Laerm;62979;55.720;37.606;2023-11-21T10:30:38;56.14;49.10;68.13;;
74496;Laerm;62979;55.720;37.606;2023-11-21T10:33:07;58.87;51.35;67.99;;
74496;Laerm;62979;55.720;37.606;2023-11-21T10:35:45;57.40;49.09;66.06;;
74496;Laerm;62979;55.720;37.606;2023-11-21T10:38:18;59.19;50.15;72.27;;
74496;Laerm;62979;55.720;37.606;2023-11-21T10:40:47;56.22;46.47;65.98;;
74496;Laerm;62979;55.720;37.606;2023-11-21T10:43:15;56.97;49.40;67.66;;
74496;Laerm;62979;55.720;37.606;2023-11-21T10:45:43;56.74;47.57;66.33;;
74496;Laerm;62979;55.720;37.606;2023-11-21T10:48:13;58.69;48.65;81.16;;
74496;Laerm;62979;55.720;37.606;2023-11-21T10:50:43;57.21;48.91;69.44;;
74496;Laerm;62979;55.720;37.606;2023-11-21T10:53:10;57.17;50.41;66.88;;
74496;Laerm;62979;55.720;37.606;2023-11-21T10:55:40;56.29;47.72;67.63;;
74496;Laerm;62979;55.720;37.606;2023-11-21T10:58:07;59.42;48.91;75.03;;
74496;Laerm;62979;55.720;37.606;2023-11-21T11:00:38;57.28;48.91;67.46;;
74496;Laerm;62979;55.720;37.606;2023-11-21T11:03:07;57.37;50.11;66.38;;
74496;Laerm;62979;55.720;37.606;2023-11-21T11:05:42;57.61;48.26;68.43;;
74496;Laerm;62979;55.720;37.606;2023-11-21T11:08:21;58.27;49.05;71.06;;
74496;Laerm;62979;55.720;37.606;2023-11-21T11:10:54;55.67;47.56;67.01;;
74496;Laerm;62979;55.720;37.606;2023-11-21T11:13:22;57.24;48.00;66.89;;
74496;Laerm;62979;55.720;37.606;2023-11-21T11:15:50;58.78;48.44;67.81;;
74496;Laerm;62979;55.720;37.606;2023-11-21T11:18:19;57.60;49.55;67.99;;
74496;Laerm;62979;55.720;37.606;2023-11-21T11:20:50;57.56;50.39;70.00;;
74496;Laerm;62979;55.720;37.606;2023-11-21T11:23:41;57.65;51.27;65.84;;
74496;Laerm;62979;55.720;37.606;2023-11-21T11:26:39;58.32;49.54;71.97;;
74496;Laerm;62979;55.720;37.606;2023-11-21T11:29:23;56.88;49.44;71.36;;
74496;Laerm;62979;55.720;37.606;2023-11-21T11:32:09;57.62;49.43;67.16;;
74496;Laerm;62979;55.720;37.606;2023-11-21T11:34:46;57.81;48.84;71.49;;
74496;Laerm;62979;55.720;37.606;2023-11-21T11:37:16;57.52;47.03;72.45;;
74496;Laerm;62979;55.720;37.606;2023-11-21T11:39:45;56.61;49.87;73.64;;
74496;Laerm;62979;55.720;37.606;2023-11-21T11:42:15;58.65;50.22;69.61;;
74496;Laerm;62979;55.720;37.606;2023-11-21T11:44:56;58.44;48.92;69.53;;
74496;Laerm;62979;55.720;37.606;2023-11-21T11:47:26;57.87;51.68;67.34;;
74496;Laerm;62979;55.720;37.606;2023-11-21T11:50:04;58.67;49.74;68.92;;
74496;Laerm;62979;55.720;37.606;2023-11-21T11:52:39;59.86;53.31;75.26;;
74496;Laerm;62979;55.720;37.606;2023-11-21T11:55:09;58.57;50.62;70.29;;
74496;Laerm;62979;55.720;37.606;2023-11-21T11:57:42;55.60;48.36;64.53;;
74496;Laerm;62979;55.720;37.606;2023-11-21T12:00:15;55.91;49.08;63.54;;
74496;Laerm;62979;55.720;37.606;2023-11-21T12:02:45;56.41;48.92;66.30;;
74496;Laerm;62979;55.720;37.606;2023-11-21T12:05:15;58.00;50.07;65.55;;
74496;Laerm;62979;55.720;37.606;2023-11-21T12:07:46;57.03;51.30;63.59;;
74496;Laerm;62979;55.720;37.606;2023-11-21T12:10:16;56.56;49.92;68.41;;
74496;Laerm;62979;55.720;37.606;2023-11-21T12:12:47;58.59;50.37;73.98;;
74496;Laerm;62979;55.720;37.606;2023-11-21T12:15:15;58.98;51.83;67.38;;
74496;Laerm;62979;55.720;37.606;2023-11-21T12:17:44;56.49;48.46;67.06;;
74496;Laerm;62979;55.720;37.606;2023-11-21T12:20:13;58.84;52.93;65.33;;
74496;Laerm;62979;55.720;37.606;2023-11-21T12:22:49;55.99;47.61;64.77;;
74496;Laerm;62979;55.720;37.606;2023-11-21T12:25:18;56.05;48.33;68.07;;
74496;Laerm;62979;55.720;37.606;2023-11-21T12:27:47;57.69;49.49;73.28;;
74496;Laerm;62979;55.720;37.606;2023-11-21T12:30:17;55.84;48.81;68.71;;
74496;Laerm;62979;55.720;37.606;2023-11-21T12:32:50;56.40;47.80;65.67;;
74496;Laerm;62979;55.720;37.606;2023-11-21T12:35:19;54.11;47.81;66.33;;
74496;Laerm;62979;55.720;37.606;2023-11-21T12:37:46;57.61;49.25;66.62;;
74496;Laerm;62979;55.720;37.606;2023-11-21T12:40:15;57.18;48.37;68.79;;
74496;Laerm;62979;55.720;37.606;2023-11-21T12:42:44;58.82;51.00;67.21;;
74496;Laerm;62979;55.720;37.606;2023-11-21T12:45:22;56.85;51.17;67.06;;
74496;Laerm;62979;55.720;37.606;2023-11-21T12:47:55;56.02;49.12;65.90;;
74496;Laerm;62979;55.720;37.606;2023-11-21T12:50:27;55.95;48.78;63.63;;
74496;Laerm;62979;55.720;37.606;2023-11-21T12:53:00;55.57;49.85;67.50;;
74496;Laerm;62979;55.720;37.606;2023-11-21T12:55:31;56.85;48.42;68.06;;
74496;Laerm;62979;55.720;37.606;2023-11-21T12:58:02;56.47;50.16;66.93;;
74496;Laerm;62979;55.720;37.606;2023-11-21T13:00:38;56.23;49.67;77.53;;
74496;Laerm;62979;55.720;37.606;2023-11-21T13:03:10;58.47;50.79;66.75;;
74496;Laerm;62979;55.720;37.606;2023-11-21T13:05:40;58.75;52.30;65.76;;
74496;Laerm;62979;55.720;37.606;2023-11-21T13:08:09;57.32;50.29;65.53;;
74496;Laerm;62979;55.720;37.606;2023-11-21T13:10:40;56.97;49.89;63.72;;
74496;Laerm;62979;55.720;37.606;2023-11-21T13:13:11;60.50;50.71;74.44;;
74496;Laerm;62979;55.720;37.606;2023-11-21T13:15:50;58.59;50.04;72.67;;
74496;Laerm;62979;55.720;37.606;2023-11-21T13:18:18;57.33;50.40;69.62;;
74496;Laerm;62979;55.720;37.606;2023-11-21T13:20:47;59.32;51.30;74.71;;
74496;Laerm;62979;55.720;37.606;2023-11-21T13:23:15;55.86;48.47;62.67;;
74496;Laerm;62979;55.720;37.606;2023-11-21T13:25:43;57.76;49.29;79.21;;
74496;Laerm;62979;55.720;37.606;2023-11-21T13:28:12;58.92;49.69;73.77;;
74496;Laerm;62979;55.720;37.606;2023-11-21T13:30:41;58.59;50.22;65.90;;
74496;Laerm;62979;55.720;37.606;2023-11-21T13:33:11;55.82;48.62;62.91;;
74496;Laerm;62979;55.720;37.606;2023-11-21T13:35:44;59.18;50.73;76.03;;
74496;Laerm;62979;55.720;37.606;2023-11-21T13:38:17;58.33;52.33;65.78;;
74496;Laerm;62979;55.720;37.606;2023-11-21T13:40:50;57.22;49.37;72.14;;